Time;durP1;ratioP1;P1;durP2;ratioP2;P2;SDS_P1;SDS_P2;PMS_P1;PMS_P2;Temp;Humidity;BMP_temperature;BMP_pressure;BME280_temperature;BME280_humidity;BME280_pressure;Samples;Min_cycle;Max_cycle;Signal;HPM_P1;HPM_P2
2019/12/30 00:00:52;;;;;;;37;28.8;;;;;;;-0.56;73.64063;979.7527;;;;
2019/12/30 00:03:18;;;;;;;36;29.4;;;;;;;-0.55;73.29004;979.7128;;;;
2019/12/30 00:05:43;;;;;;;35.8;29;;;;;;;-0.52;73.19043;979.68;;;;
2019/12/30 00:08:08;;;;;;;36.2;28;;;;;;;-0.58;73.52246;979.735;;;;
2019/12/30 00:10:33;;;;;;;37.5;30.6;;;;;;;-0.67;74.56836;979.7743;;;;
2019/12/30 00:12:58;;;;;;;36.8;28.3;;;;;;;-0.67;74.77441;979.8279;;;;
2019/12/30 00:15:24;;;;;;;37.1;28.8;;;;;;;-0.67;74.36328;979.7352;;;;
2019/12/30 00:17:49;;;;;;;35.9;27.9;;;;;;;-0.56;74.58887;979.7294;;;;
2019/12/30 00:20:14;;;;;;;36.4;29.7;;;;;;;-0.51;74.70117;979.6658;;;;
2019/12/30 00:22:39;;;;;;;37.4;28.1;;;;;;;-0.47;76.43164;979.6869;;;;
2019/12/30 00:25:04;;;;;;;35.5;28.4;;;;;;;-0.46;75.65625;979.7084;;;;
2019/12/30 00:27:29;;;;;;;35.3;28.4;;;;;;;-0.47;74.50195;979.6484;;;;
2019/12/30 00:29:55;;;;;;;36;29;;;;;;;-0.53;74.22949;979.5425;;;;
2019/12/30 00:32:20;;;;;;;37.2;29.9;;;;;;;-0.56;74.13184;979.5848;;;;
2019/12/30 00:34:45;;;;;;;38.3;30.7;;;;;;;-0.5;74.29004;979.5181;;;;
2019/12/30 00:37:10;;;;;;;37;29.3;;;;;;;-0.71;74.53906;979.4881;;;;
2019/12/30 00:39:35;;;;;;;36.9;28.8;;;;;;;-0.64;75.00879;979.5595;;;;
2019/12/30 00:42:00;;;;;;;36;28.3;;;;;;;-0.6;74.67383;979.527;;;;
2019/12/30 00:44:26;;;;;;;35.4;27.9;;;;;;;-0.58;74.31055;979.5744;;;;
2019/12/30 00:46:51;;;;;;;35.6;28.6;;;;;;;-0.7;73.98145;979.5633;;;;
2019/12/30 00:49:16;;;;;;;35;28.7;;;;;;;-0.66;74.06934;979.5955;;;;
2019/12/30 00:52:50;;;;;;;34.7;27.8;;;;;;;-0.73;74.58203;979.6462;;;;
2019/12/30 00:55:15;;;;;;;34.6;28;;;;;;;-0.76;74.82813;979.671;;;;
2019/12/30 00:57:40;;;;;;;32.8;27.4;;;;;;;-0.74;74.15625;979.7396;;;;
2019/12/30 01:00:05;;;;;;;35;28.4;;;;;;;-0.75;74.00684;979.7355;;;;
2019/12/30 01:04:55;;;;;;;34.8;27.8;;;;;;;-0.82;74.40527;979.7502;;;;
2019/12/30 01:07:20;;;;;;;35.1;27.9;;;;;;;-0.82;74.09863;979.6752;;;;
2019/12/30 01:09:45;;;;;;;35.4;29.5;;;;;;;-0.66;73.7041;979.6434;;;;
2019/12/30 01:12:10;;;;;;;34.8;28.9;;;;;;;-0.65;73.44336;979.6316;;;;
2019/12/30 01:14:35;;;;;;;32.7;27.1;;;;;;;-0.78;73.85352;979.6937;;;;
2019/12/30 01:17:00;;;;;;;37;29.7;;;;;;;-0.86;74.2168;979.6869;;;;
2019/12/30 01:19:25;;;;;;;33.5;27.2;;;;;;;-0.8;74.63672;979.6666;;;;
2019/12/30 01:21:50;;;;;;;34.4;27.3;;;;;;;-0.84;74.34473;979.6976;;;;
2019/12/30 01:24:15;;;;;;;34.3;27;;;;;;;-0.75;74.20117;979.7147;;;;
2019/12/30 01:26:40;;;;;;;33.1;27.4;;;;;;;-0.81;73.39063;979.6953;;;;
2019/12/30 01:29:06;;;;;;;32.7;26.7;;;;;;;-0.84;73.93457;979.6633;;;;
2019/12/30 01:31:31;;;;;;;32.8;26.3;;;;;;;-0.83;73.69434;979.6409;;;;
2019/12/30 01:33:56;;;;;;;33.7;27.4;;;;;;;-0.87;73.59863;979.5864;;;;
2019/12/30 01:36:21;;;;;;;35;28;;;;;;;-0.82;73.72168;979.6097;;;;
2019/12/30 01:38:46;;;;;;;34.8;28.7;;;;;;;-0.82;73.8916;979.6208;;;;
2019/12/30 01:41:11;;;;;;;33.3;27.2;;;;;;;-0.9;73.66211;979.6267;;;;
2019/12/30 01:43:36;;;;;;;33.4;26.4;;;;;;;-0.95;74.04004;979.589;;;;
2019/12/30 01:46:01;;;;;;;32.9;26.7;;;;;;;-0.93;73.70215;979.5731;;;;
2019/12/30 01:48:26;;;;;;;34.4;29.3;;;;;;;-0.96;74.63281;979.5722;;;;
2019/12/30 01:50:52;;;;;;;32.9;26.6;;;;;;;-0.97;74.33301;979.5664;;;;
2019/12/30 01:53:17;;;;;;;28.9;24.2;;;;;;;-0.94;74.32617;979.5833;;;;
2019/12/30 01:55:56;;;;;;;30.7;25.8;;;;;;;-0.85;74.26367;979.616;;;;
2019/12/30 02:03:17;;;;;;;31.1;25.2;;;;;;;-0.87;75.02539;979.4849;;;;
2019/12/30 02:05:22;;;;;;;33.6;26.5;;;;;;;-0.91;74.10449;979.4319;;;;
2019/12/30 02:07:47;;;;;;;31.7;26;;;;;;;-0.91;74.16016;979.4886;;;;
2019/12/30 02:10:12;;;;;;;31.6;25.9;;;;;;;-1.03;74.09375;979.4136;;;;
2019/12/30 02:12:37;;;;;;;31.8;25.5;;;;;;;-0.93;73.61035;979.3582;;;;
2019/12/30 02:15:03;;;;;;;32.4;26.2;;;;;;;-0.98;73.88672;979.3005;;;;
2019/12/30 02:17:28;;;;;;;33.6;27.8;;;;;;;-1.01;73.99609;979.2626;;;;
2019/12/30 02:19:53;;;;;;;32.7;26.8;;;;;;;-0.99;73.79395;979.1983;;;;
2019/12/30 02:22:18;;;;;;;33.4;26.5;;;;;;;-1.04;73.80859;979.2514;;;;
2019/12/30 02:24:43;;;;;;;31.9;26.2;;;;;;;-1.11;73.79492;979.2438;;;;
2019/12/30 02:27:08;;;;;;;32.7;26.1;;;;;;;-1.15;74.24316;979.2578;;;;
2019/12/30 02:29:33;;;;;;;29.9;24.6;;;;;;;-1.18;74.16992;979.2464;;;;
2019/12/30 02:31:58;;;;;;;30.2;24.7;;;;;;;-1.24;74.09082;979.2219;;;;
2019/12/30 02:34:23;;;;;;;28.8;24.1;;;;;;;-1.17;73.52246;979.2386;;;;
2019/12/30 02:36:48;;;;;;;29.1;24;;;;;;;-1.18;73.21387;979.2672;;;;
2019/12/30 02:39:13;;;;;;;30.1;24.9;;;;;;;-1.3;73.94531;979.2919;;;;
2019/12/30 02:41:38;;;;;;;31.3;24.9;;;;;;;-1.24;74.50195;979.2003;;;;
2019/12/30 02:44:04;;;;;;;30.2;24.6;;;;;;;-1.28;74.4043;979.1825;;;;
2019/12/30 02:46:29;;;;;;;29.6;24.7;;;;;;;-1.3;74.59473;979.1602;;;;
2019/12/30 02:48:54;;;;;;;29.3;25;;;;;;;-1.26;74.33887;979.1221;;;;
2019/12/30 02:51:19;;;;;;;29.2;24.9;;;;;;;-1.26;73.85059;979.1573;;;;
2019/12/30 02:53:44;;;;;;;30.1;24.1;;;;;;;-1.18;73.3623;979.1627;;;;
2019/12/30 02:56:09;;;;;;;29.7;24.7;;;;;;;-1.15;72.95605;979.182;;;;
2019/12/30 02:58:34;;;;;;;30.8;25;;;;;;;-1.18;72.92773;979.1339;;;;
2019/12/30 03:00:59;;;;;;;28.5;23.6;;;;;;;-1.2;72.90332;979.1289;;;;
2019/12/30 03:03:24;;;;;;;29;24.2;;;;;;;-1.12;73.0752;979.1062;;;;
2019/12/30 03:05:49;;;;;;;30;25;;;;;;;-1.17;72.88477;979.1228;;;;
2019/12/30 03:08:14;;;;;;;30.1;24.4;;;;;;;-1.19;72.60645;979.1545;;;;
2019/12/30 03:10:39;;;;;;;29.1;23.9;;;;;;;-1.17;72.67969;979.2112;;;;
2019/12/30 03:13:04;;;;;;;29;24.3;;;;;;;-1.13;72.50293;979.2697;;;;
2019/12/30 03:15:30;;;;;;;30.5;24.6;;;;;;;-1.09;72.59082;979.215;;;;
2019/12/30 03:17:55;;;;;;;28.2;24.1;;;;;;;-1.13;72.71973;979.1524;;;;
2019/12/30 03:20:20;;;;;;;30.9;23.7;;;;;;;-1.12;72.42676;979.135;;;;
2019/12/30 03:22:45;;;;;;;29.9;24.3;;;;;;;-1.22;72.73926;979.0387;;;;
2019/12/30 03:25:10;;;;;;;33.7;25.6;;;;;;;-1.16;72.52148;979.0117;;;;
2019/12/30 03:27:35;;;;;;;35.5;24.8;;;;;;;-1.28;72.91113;978.9973;;;;
2019/12/30 03:30:01;;;;;;;34.3;24.2;;;;;;;-1.15;72.69238;979.0566;;;;
2019/12/30 03:32:26;;;;;;;33.3;24;;;;;;;-1.16;71.92871;979.0557;;;;
2019/12/30 03:34:51;;;;;;;32.6;24.7;;;;;;;-1.19;72.05957;979.0403;;;;
2019/12/30 03:37:16;;;;;;;32.1;24.5;;;;;;;-1.2;72.21777;979.0106;;;;
2019/12/30 03:39:41;;;;;;;31.5;25.3;;;;;;;-1.29;72.31641;978.9895;;;;
2019/12/30 03:42:06;;;;;;;34.7;25.6;;;;;;;-1.25;72.20898;979.0266;;;;
2019/12/30 03:44:31;;;;;;;31.5;23.7;;;;;;;-1.21;72.22754;978.9962;;;;
2019/12/30 03:46:57;;;;;;;33.5;25.8;;;;;;;-1.2;72.41113;979.0139;;;;
2019/12/30 03:49:22;;;;;;;32.5;26.2;;;;;;;-1.23;72.7373;979.076;;;;
2019/12/30 03:51:47;;;;;;;32.6;25.8;;;;;;;-1.18;72.76758;979.0469;;;;
2019/12/30 03:54:12;;;;;;;31.2;26.4;;;;;;;-1.23;73.98047;979.0687;;;;
2019/12/30 03:56:37;;;;;;;31.5;25.8;;;;;;;-1.28;74.46094;979.0467;;;;
2019/12/30 03:59:03;;;;;;;32.1;25.3;;;;;;;-1.25;73.87402;979.0399;;;;
2019/12/30 04:02:26;;;;;;;31.2;24.5;;;;;;;-1.22;73.62695;979.0649;;;;
2019/12/30 04:04:51;;;;;;;31.5;25.7;;;;;;;-1.25;73.43945;979.0401;;;;
2019/12/30 04:07:16;;;;;;;34.2;26;;;;;;;-1.24;73.48828;979.0081;;;;
2019/12/30 04:09:41;;;;;;;32.5;26.8;;;;;;;-1.4;73.75586;978.9503;;;;
2019/12/30 04:12:06;;;;;;;34.5;25.5;;;;;;;-1.53;74.67969;978.8998;;;;
2019/12/30 04:14:32;;;;;;;32.5;26.8;;;;;;;-1.55;74.99414;978.8591;;;;
2019/12/30 04:17:00;;;;;;;30.6;24.4;;;;;;;-1.43;74.37598;978.8286;;;;
2019/12/30 04:19:35;;;;;;;29.2;24.2;;;;;;;-1.39;73.88281;978.7961;;;;
2019/12/30 04:21:47;;;;;;;30.5;24.5;;;;;;;-1.41;73.85645;978.7699;;;;
2019/12/30 04:26:45;;;;;;;36.6;28;;;;;;;-1.29;73.33301;978.7238;;;;
2019/12/30 04:30:55;;;;;;;33.7;26.7;;;;;;;-1.31;73.54492;978.7594;;;;
2019/12/30 04:31:39;;;;;;;32.8;26.4;;;;;;;-1.41;73.65137;978.7612;;;;
2019/12/30 04:33:52;;;;;;;33.8;25.1;;;;;;;-1.4;74.30273;978.798;;;;
2019/12/30 04:36:18;;;;;;;30.3;24.5;;;;;;;-1.38;73.80371;978.8538;;;;
2019/12/30 04:38:43;;;;;;;32.2;25.4;;;;;;;-1.37;74.11523;978.87;;;;
2019/12/30 04:41:08;;;;;;;32.7;25.2;;;;;;;-1.29;73.45605;978.8794;;;;
2019/12/30 04:43:33;;;;;;;32.7;24.9;;;;;;;-1.28;73.87988;978.817;;;;
2019/12/30 04:45:58;;;;;;;31.2;24.9;;;;;;;-1.25;73.97559;978.807;;;;
2019/12/30 04:48:23;;;;;;;29.4;24.5;;;;;;;-1.32;74.10156;978.8638;;;;
2019/12/30 04:50:48;;;;;;;30.6;24.1;;;;;;;-1.39;73.89551;978.8209;;;;
2019/12/30 04:53:13;;;;;;;29.8;23.2;;;;;;;-1.33;73.84961;978.8209;;;;
2019/12/30 04:55:38;;;;;;;28.5;23.2;;;;;;;-1.27;73.23145;978.7341;;;;
2019/12/30 04:58:03;;;;;;;28.7;23.9;;;;;;;-1.4;73.60938;978.7509;;;;
2019/12/30 05:00:29;;;;;;;29.7;23.3;;;;;;;-1.51;73.51074;978.6861;;;;
2019/12/30 05:02:54;;;;;;;29.6;24.2;;;;;;;-1.43;73.97754;978.6722;;;;
2019/12/30 05:05:19;;;;;;;30.7;23.7;;;;;;;-1.38;73.55371;978.707;;;;
2019/12/30 05:07:44;;;;;;;32;25.5;;;;;;;-1.41;73.37793;978.6717;;;;
2019/12/30 05:10:09;;;;;;;29.3;24.2;;;;;;;-1.44;73.45117;978.6835;;;;
2019/12/30 05:12:34;;;;;;;30.7;24.3;;;;;;;-1.52;73.65527;978.7094;;;;
2019/12/30 05:14:59;;;;;;;32.6;24.3;;;;;;;-1.44;73.12305;978.6404;;;;
2019/12/30 05:17:24;;;;;;;30.9;23.8;;;;;;;-1.39;72.91406;978.5623;;;;
2019/12/30 05:19:49;;;;;;;29.1;24.4;;;;;;;-1.44;72.55176;978.5478;;;;
2019/12/30 05:22:14;;;;;;;31.3;24;;;;;;;-1.53;72.98242;978.5616;;;;
2019/12/30 05:24:40;;;;;;;27.8;23.1;;;;;;;-1.49;73.0791;978.6152;;;;
2019/12/30 05:27:05;;;;;;;31.6;24.3;;;;;;;-1.48;72.47852;978.6881;;;;
2019/12/30 05:29:30;;;;;;;27.8;23;;;;;;;-1.5;72.62207;978.7236;;;;
2019/12/30 05:31:55;;;;;;;29.3;22.9;;;;;;;-1.43;72.5752;978.752;;;;
2019/12/30 05:34:20;;;;;;;31.1;23.8;;;;;;;-1.48;73.00293;978.7504;;;;
2019/12/30 05:36:45;;;;;;;30.5;23.7;;;;;;;-1.36;72.66895;978.7654;;;;
2019/12/30 05:39:10;;;;;;;30.2;23.8;;;;;;;-1.37;72.23633;978.6801;;;;
2019/12/30 05:41:35;;;;;;;29.6;24.5;;;;;;;-1.38;72.74414;978.6487;;;;
2019/12/30 05:44:00;;;;;;;31.1;24.1;;;;;;;-1.39;72.72168;978.6318;;;;
2019/12/30 05:46:25;;;;;;;29.4;24.4;;;;;;;-1.37;72.72461;978.6761;;;;
2019/12/30 05:48:50;;;;;;;33.4;26.8;;;;;;;-1.37;73.5791;978.6561;;;;
2019/12/30 05:51:15;;;;;;;31.8;26;;;;;;;-1.42;73.65137;978.666;;;;
2019/12/30 05:53:41;;;;;;;33.7;26.7;;;;;;;-1.45;73.48535;978.6316;;;;
2019/12/30 05:56:06;;;;;;;33.6;27.5;;;;;;;-1.31;72.68945;978.5974;;;;
2019/12/30 05:58:31;;;;;;;34;26.6;;;;;;;-1.29;72.44141;978.592;;;;
2019/12/30 06:00:56;;;;;;;33.3;26.1;;;;;;;-1.36;72.74902;978.5947;;;;
2019/12/30 06:03:21;;;;;;;30.1;25.4;;;;;;;-1.48;72.88672;978.5795;;;;
2019/12/30 06:05:46;;;;;;;31.2;24.9;;;;;;;-1.46;73.16406;978.5898;;;;
2019/12/30 06:08:11;;;;;;;31.6;25.5;;;;;;;-1.46;73.5752;978.5739;;;;
2019/12/30 06:10:36;;;;;;;35.2;26.8;;;;;;;-1.5;73.7041;978.5034;;;;
2019/12/30 06:13:01;;;;;;;35.6;27.7;;;;;;;-1.49;73.80859;978.4844;;;;
2019/12/30 06:15:26;;;;;;;33.4;26.1;;;;;;;-1.48;73.57227;978.4855;;;;
2019/12/30 06:17:51;;;;;;;33.3;26;;;;;;;-1.5;73.76172;978.4755;;;;
2019/12/30 06:20:16;;;;;;;31.9;25.9;;;;;;;-1.52;74.01855;978.5018;;;;
2019/12/30 06:22:42;;;;;;;31.1;26;;;;;;;-1.64;74.33984;978.4745;;;;
2019/12/30 06:25:23;;;;;;;32.9;25.5;;;;;;;-1.61;74.36914;978.4236;;;;
2019/12/30 06:27:48;;;;;;;30.2;24.8;;;;;;;-1.66;74.2002;978.4241;;;;
2019/12/30 06:30:13;;;;;;;31.6;25.4;;;;;;;-1.66;74.37109;978.4504;;;;
2019/12/30 06:32:38;;;;;;;30.7;25.6;;;;;;;-1.58;73.89551;978.4548;;;;
2019/12/30 06:35:03;;;;;;;32.5;26;;;;;;;-1.72;74.13281;978.5154;;;;
2019/12/30 06:37:28;;;;;;;37.3;26.8;;;;;;;-1.79;74.47168;978.5323;;;;
2019/12/30 06:39:53;;;;;;;39.2;27.7;;;;;;;-1.63;74.19336;978.5193;;;;
2019/12/30 06:42:18;;;;;;;32;25.7;;;;;;;-1.64;74.54492;978.5089;;;;
2019/12/30 06:44:43;;;;;;;30.6;24.8;;;;;;;-1.54;73.92578;978.5503;;;;
2019/12/30 06:47:08;;;;;;;31.9;24.3;;;;;;;-1.49;73.3418;978.5044;;;;
2019/12/30 06:49:33;;;;;;;29.8;24.2;;;;;;;-1.47;73.20898;978.4933;;;;
2019/12/30 06:51:58;;;;;;;31.3;26.1;;;;;;;-1.45;73.37207;978.4624;;;;
2019/12/30 06:54:24;;;;;;;31.8;24.3;;;;;;;-1.46;73.0957;978.5125;;;;
2019/12/30 06:56:49;;;;;;;31.7;24.5;;;;;;;-1.56;74.16211;978.5343;;;;
2019/12/30 06:59:14;;;;;;;30.5;24.4;;;;;;;-1.43;73.47754;978.6116;;;;
2019/12/30 07:01:39;;;;;;;34.2;27.6;;;;;;;-1.46;73.45996;978.6465;;;;
2019/12/30 07:05:42;;;;;;;36.3;29.4;;;;;;;-1.49;73.4668;978.6632;;;;
2019/12/30 07:08:07;;;;;;;34.5;27.5;;;;;;;-1.46;72.83496;978.625;;;;
2019/12/30 07:10:32;;;;;;;35.5;28.2;;;;;;;-1.45;73.06445;978.5972;;;;
2019/12/30 07:12:57;;;;;;;31;25.6;;;;;;;-1.42;73.49023;978.6005;;;;
2019/12/30 07:15:22;;;;;;;32;25.9;;;;;;;-1.41;72.95605;978.6486;;;;
2019/12/30 07:17:55;;;;;;;30.9;26.2;;;;;;;-1.47;72.55957;978.6194;;;;
2019/12/30 07:22:38;;;;;;;32.4;26.8;;;;;;;-1.42;72.33984;978.6053;;;;
2019/12/30 07:25:03;;;;;;;33.5;26.9;;;;;;;-1.4;72.22949;978.6312;;;;
2019/12/30 07:27:28;;;;;;;33.4;26.6;;;;;;;-1.41;72.29492;978.6342;;;;
2019/12/30 07:29:53;;;;;;;33.1;26.2;;;;;;;-1.33;72.39063;978.6197;;;;
2019/12/30 07:32:18;;;;;;;34;28.3;;;;;;;-1.44;72.5752;978.6166;;;;
2019/12/30 07:34:43;;;;;;;34.1;27.7;;;;;;;-1.43;72.92871;978.6722;;;;
2019/12/30 07:37:08;;;;;;;36;28.6;;;;;;;-1.31;72.69922;978.598;;;;
2019/12/30 07:39:33;;;;;;;37;28.7;;;;;;;-1.17;72.33594;978.675;;;;
2019/12/30 07:41:58;;;;;;;39.1;29;;;;;;;-1.01;71.86328;978.6461;;;;
2019/12/30 07:44:24;;;;;;;37.2;29.6;;;;;;;-1.03;72.26953;978.6119;;;;
2019/12/30 07:46:49;;;;;;;36.7;29.1;;;;;;;-1.01;72.3877;978.6766;;;;
2019/12/30 07:49:14;;;;;;;37.2;28.9;;;;;;;-0.74;78.60938;978.6962;;;;
2019/12/30 07:51:39;;;;;;;37.1;29;;;;;;;-0.47;75.10645;978.7117;;;;
2019/12/30 07:54:04;;;;;;;40.1;30.3;;;;;;;-0.56;72.00781;978.6674;;;;
2019/12/30 07:56:29;;;;;;;39.4;30.2;;;;;;;1.02;67.02734;978.6739;;;;
2019/12/30 07:58:54;;;;;;;34.1;28;;;;;;;2.07;61.93262;978.7205;;;;
2019/12/30 08:01:19;;;;;;;36;29.1;;;;;;;2.17;61.32715;978.6859;;;;
2019/12/30 08:03:44;;;;;;;34.4;27.5;;;;;;;1.96;61.98633;978.7051;;;;
2019/12/30 08:06:10;;;;;;;35.6;28.3;;;;;;;2.1;61.99414;978.7042;;;;
2019/12/30 08:08:35;;;;;;;36;29.1;;;;;;;2.81;60.02637;978.6654;;;;
2019/12/30 08:11:00;;;;;;;32.1;25.7;;;;;;;3.05;59.56445;978.6269;;;;
2019/12/30 08:13:25;;;;;;;32.7;25.8;;;;;;;3.26;57.86523;978.6606;;;;
2019/12/30 08:15:50;;;;;;;31.3;26.2;;;;;;;3.22;58.41309;978.6434;;;;
2019/12/30 08:18:15;;;;;;;31.6;26.5;;;;;;;3.18;59.05273;978.6534;;;;
2019/12/30 08:20:41;;;;;;;27.8;22.8;;;;;;;3.7;57.74219;978.7107;;;;
2019/12/30 08:23:06;;;;;;;29.7;23;;;;;;;4.29;55.69434;978.7106;;;;
2019/12/30 08:25:31;;;;;;;28.4;22.2;;;;;;;4.58;54.84375;978.7374;;;;
2019/12/30 08:27:56;;;;;;;26.9;21.9;;;;;;;4.13;56.0791;978.7903;;;;
2019/12/30 08:30:21;;;;;;;28.3;23.2;;;;;;;4.08;56.55664;978.8533;;;;
2019/12/30 08:32:46;;;;;;;25.7;22;;;;;;;4.42;55.52832;978.7651;;;;
2019/12/30 08:35:11;;;;;;;25.3;21.2;;;;;;;5.56;52.45605;978.6806;;;;
2019/12/30 08:37:36;;;;;;;23.9;20.5;;;;;;;7.8;46.17383;978.6336;;;;
2019/12/30 08:40:01;;;;;;;22.6;19.3;;;;;;;9.75;40.68652;978.5956;;;;
2019/12/30 08:42:27;;;;;;;21.6;19;;;;;;;8.08;44.17676;978.6373;;;;
2019/12/30 08:44:52;;;;;;;22.2;18.5;;;;;;;5.77;50.83594;978.6021;;;;
2019/12/30 08:47:17;;;;;;;22.9;18.9;;;;;;;4.54;55.39258;978.6114;;;;
2019/12/30 08:49:42;;;;;;;24.5;19.6;;;;;;;3.73;57.82617;978.6752;;;;
2019/12/30 08:52:07;;;;;;;23.7;19;;;;;;;3.74;60.24902;978.6365;;;;
2019/12/30 08:54:32;;;;;;;21.3;18.7;;;;;;;3.42;59.66211;978.5776;;;;
2019/12/30 08:56:57;;;;;;;23.5;19.2;;;;;;;3.27;60.49414;978.5633;;;;
2019/12/30 08:59:22;;;;;;;22.5;18.9;;;;;;;3.17;60.54785;978.5324;;;;
2019/12/30 09:01:48;;;;;;;21.6;18.2;;;;;;;3.1;62.35938;978.5233;;;;
2019/12/30 09:04:13;;;;;;;21.4;18.2;;;;;;;2.9;61.51172;978.4991;;;;
2019/12/30 09:06:38;;;;;;;21.1;18.1;;;;;;;2.44;63.35547;978.5298;;;;
2019/12/30 09:09:04;;;;;;;21.9;18.9;;;;;;;2.25;64.15332;978.52;;;;
2019/12/30 09:11:28;;;;;;;23.6;18.9;;;;;;;2.03;65.46582;978.5345;;;;
2019/12/30 09:13:53;;;;;;;22.4;19.5;;;;;;;2.51;64.58496;978.509;;;;
2019/12/30 09:16:19;;;;;;;24.6;19.5;;;;;;;2.66;63.99805;978.5383;;;;
2019/12/30 09:18:44;;;;;;;23;18.6;;;;;;;2.71;64.78711;978.4519;;;;
2019/12/30 09:21:09;;;;;;;22.2;18.6;;;;;;;2.81;63.80176;978.4476;;;;
2019/12/30 09:23:34;;;;;;;23.3;19.3;;;;;;;2.75;64.14941;978.4218;;;;
2019/12/30 09:25:59;;;;;;;23.2;19.3;;;;;;;2.59;65.0459;978.4537;;;;
2019/12/30 09:28:24;;;;;;;21.8;18;;;;;;;2.49;64.97266;978.4163;;;;
2019/12/30 09:30:49;;;;;;;21.5;18.1;;;;;;;2.36;66.34375;978.3875;;;;
2019/12/30 09:33:14;;;;;;;21.9;18.4;;;;;;;2.23;66.7373;978.3345;;;;
2019/12/30 09:35:40;;;;;;;21.4;17.8;;;;;;;2.38;66.13965;978.3445;;;;
2019/12/30 09:38:05;;;;;;;21.1;17;;;;;;;2.29;65.96484;978.327;;;;
2019/12/30 09:40:30;;;;;;;18.6;16;;;;;;;2.44;66.02344;978.3748;;;;
2019/12/30 09:42:55;;;;;;;20;17.1;;;;;;;2.33;66.4209;978.3741;;;;
2019/12/30 09:45:20;;;;;;;20.9;16.7;;;;;;;2.48;65.9707;978.3399;;;;
2019/12/30 09:47:45;;;;;;;19.6;16.4;;;;;;;2.48;66.12207;978.3198;;;;
2019/12/30 09:50:10;;;;;;;19.7;16.8;;;;;;;2.31;66.19824;978.3387;;;;
2019/12/30 09:52:36;;;;;;;20.9;17.5;;;;;;;2.23;66.84082;978.3129;;;;
2019/12/30 09:55:01;;;;;;;20.4;16.7;;;;;;;2.39;66.35938;978.2795;;;;
2019/12/30 09:57:26;;;;;;;21.2;17.9;;;;;;;2.54;66.1875;978.2614;;;;
2019/12/30 09:59:52;;;;;;;18.9;16.1;;;;;;;2.65;65.91797;978.2378;;;;
2019/12/30 10:02:17;;;;;;;19.8;16.3;;;;;;;2.72;65.22656;978.1945;;;;
2019/12/30 10:04:42;;;;;;;19;16.3;;;;;;;2.7;66.09863;978.1088;;;;
2019/12/30 10:07:07;;;;;;;21.4;16.9;;;;;;;2.7;66.25879;978.0598;;;;
2019/12/30 10:09:32;;;;;;;21.1;17;;;;;;;2.67;66.18555;977.9895;;;;
2019/12/30 10:11:57;;;;;;;21.1;17.4;;;;;;;2.71;66.35156;978.0374;;;;
2019/12/30 10:14:28;;;;;;;19.6;16.6;;;;;;;2.82;66.57715;978.0313;;;;
2019/12/30 10:16:47;;;;;;;17.4;15.2;;;;;;;2.9;66.20898;978.0072;;;;
2019/12/30 10:19:13;;;;;;;18;16.1;;;;;;;2.97;66.4043;977.9903;;;;
2019/12/30 10:21:38;;;;;;;18.1;16;;;;;;;3;65.32617;977.973;;;;
2019/12/30 10:24:03;;;;;;;18.2;15.7;;;;;;;3.01;65.69629;978.0236;;;;
2019/12/30 10:26:28;;;;;;;18.8;15.8;;;;;;;2.84;66.0957;978.0511;;;;
2019/12/30 10:31:21;;;;;;;19.1;15.5;;;;;;;2.96;64.96387;977.9936;;;;
2019/12/30 10:37:35;;;;;;;17.4;14.9;;;;;;;2.95;65.34277;977.8947;;;;
2019/12/30 10:38:34;;;;;;;18.1;15.2;;;;;;;2.92;65.5332;977.8758;;;;
2019/12/30 10:40:59;;;;;;;23;16.3;;;;;;;2.94;64.69531;977.7375;;;;
2019/12/30 10:44:00;;;;;;;18.3;15.3;;;;;;;3.09;64.01758;977.71;;;;
2019/12/30 10:45:49;;;;;;;18.6;15.7;;;;;;;3.17;64.33984;977.6785;;;;
2019/12/30 10:48:14;;;;;;;22.2;16.9;;;;;;;3.19;63.87012;977.687;;;;
2019/12/30 10:50:39;;;;;;;23.5;15.9;;;;;;;3.24;64.03906;977.6462;;;;
2019/12/30 10:53:04;;;;;;;17.5;14.4;;;;;;;3.26;63.94922;977.6305;;;;
2019/12/30 10:55:30;;;;;;;18.7;14.3;;;;;;;3.29;64.64648;977.5834;;;;
2019/12/30 10:57:55;;;;;;;17.4;14.3;;;;;;;3.34;64.80371;977.4637;;;;
2019/12/30 11:00:20;;;;;;;16.1;13.3;;;;;;;3.2;64.73633;977.465;;;;
2019/12/30 11:02:45;;;;;;;16.2;13.1;;;;;;;3.11;64.05371;977.4612;;;;
2019/12/30 11:05:10;;;;;;;15;12.5;;;;;;;3.15;63.97949;977.4792;;;;
2019/12/30 11:07:36;;;;;;;15.7;12.7;;;;;;;3.24;64.5918;977.3977;;;;
2019/12/30 11:10:01;;;;;;;16.6;13.6;;;;;;;3.26;65.00977;977.3603;;;;
2019/12/30 11:12:26;;;;;;;18.6;14.6;;;;;;;3.16;66.21484;977.2781;;;;
2019/12/30 11:14:51;;;;;;;16.7;14;;;;;;;3.1;66.59766;977.1476;;;;
2019/12/30 11:17:16;;;;;;;16.1;13.4;;;;;;;3.24;66.00781;977.1911;;;;
2019/12/30 11:19:41;;;;;;;17;12.9;;;;;;;3.25;65.83691;977.2015;;;;
2019/12/30 11:22:06;;;;;;;16;12.8;;;;;;;3.36;66.58203;977.2302;;;;
2019/12/30 11:24:31;;;;;;;16.4;12.7;;;;;;;3.47;65.73242;977.2555;;;;
2019/12/30 11:26:56;;;;;;;16.8;12.4;;;;;;;3.31;64.90137;977.334;;;;
2019/12/30 11:29:21;;;;;;;16.5;12.5;;;;;;;3.42;65.20801;977.2247;;;;
2019/12/30 11:31:46;;;;;;;15;12.8;;;;;;;3.58;65.10449;977.2208;;;;
2019/12/30 11:34:12;;;;;;;19.8;12.8;;;;;;;3.77;65.57227;977.1752;;;;
2019/12/30 11:36:37;;;;;;;14.1;12.2;;;;;;;3.81;64.125;977.1658;;;;
2019/12/30 11:39:03;;;;;;;16.7;12.6;;;;;;;3.75;64.73926;977.1584;;;;
2019/12/30 11:41:27;;;;;;;16;12.7;;;;;;;3.79;64.57129;977.0903;;;;
2019/12/30 11:43:53;;;;;;;17.8;13;;;;;;;3.96;64.97754;977.0095;;;;
2019/12/30 11:46:18;;;;;;;15.8;12.4;;;;;;;3.94;64.52637;976.9816;;;;
2019/12/30 11:48:43;;;;;;;17.1;12.9;;;;;;;3.95;64.26172;976.9355;;;;
2019/12/30 11:51:08;;;;;;;14.9;11.9;;;;;;;4.05;63.85938;976.9161;;;;
2019/12/30 11:53:33;;;;;;;13.5;11.9;;;;;;;4.28;62.78613;976.8273;;;;
2019/12/30 11:55:58;;;;;;;15.1;11.4;;;;;;;4.56;62.14551;976.8416;;;;
2019/12/30 11:58:23;;;;;;;14.1;11.3;;;;;;;4.96;61.52246;976.8373;;;;
2019/12/30 12:00:48;;;;;;;14.1;11.2;;;;;;;5.11;60.76758;976.7866;;;;
2019/12/30 12:03:13;;;;;;;12.6;11;;;;;;;5.03;60.52441;976.7439;;;;
2019/12/30 12:05:39;;;;;;;16.2;10.6;;;;;;;4.98;59.9043;976.7146;;;;
2019/12/30 12:08:04;;;;;;;13.6;10.5;;;;;;;5.21;59.56641;976.6903;;;;
2019/12/30 12:10:29;;;;;;;12.3;10.6;;;;;;;5.47;59.74121;976.6714;;;;
2019/12/30 12:12:54;;;;;;;12.5;10.6;;;;;;;5.47;58.85059;976.6625;;;;
2019/12/30 12:15:19;;;;;;;13.5;10.8;;;;;;;5.64;58.9082;976.5477;;;;
2019/12/30 12:17:45;;;;;;;11.5;10.2;;;;;;;5.62;59.0332;976.4942;;;;
2019/12/30 12:20:10;;;;;;;12.9;10.8;;;;;;;5.9;58.04102;976.4689;;;;
2019/12/30 12:22:35;;;;;;;12.9;10.4;;;;;;;6.16;57.56445;976.5429;;;;
2019/12/30 12:25:00;;;;;;;11.7;10.2;;;;;;;6.26;56.78906;976.4945;;;;
2019/12/30 12:27:25;;;;;;;13.6;10.2;;;;;;;6.08;57.04297;976.4662;;;;
2019/12/30 12:29:50;;;;;;;13.1;9.7;;;;;;;6.26;56.81348;976.4709;;;;
2019/12/30 12:32:15;;;;;;;13.6;10.1;;;;;;;6.41;56.48438;976.4579;;;;
2019/12/30 12:34:40;;;;;;;12.4;9.9;;;;;;;6.6;56.26465;976.4528;;;;
2019/12/30 12:37:06;;;;;;;13.7;9.9;;;;;;;6.52;55.65137;976.4355;;;;
2019/12/30 12:39:31;;;;;;;12;9.6;;;;;;;6.66;55.15723;976.4291;;;;
2019/12/30 12:41:56;;;;;;;13.9;10.6;;;;;;;6.52;55.60352;976.4057;;;;
2019/12/30 12:44:21;;;;;;;12;10.1;;;;;;;6.74;55.76074;976.4034;;;;
2019/12/30 12:46:46;;;;;;;12.4;10;;;;;;;6.71;55.24512;976.3947;;;;
2019/12/30 12:49:11;;;;;;;11.9;10;;;;;;;6.89;55.02539;976.3756;;;;
2019/12/30 12:51:36;;;;;;;12.5;10.2;;;;;;;6.98;54.97852;976.3333;;;;
2019/12/30 12:54:02;;;;;;;13.7;10.3;;;;;;;6.88;55.20996;976.3596;;;;
2019/12/30 12:56:27;;;;;;;12.9;9.8;;;;;;;7.03;55.1123;976.2346;;;;
2019/12/30 12:58:52;;;;;;;12.7;10.1;;;;;;;6.88;55.16211;976.1809;;;;
2019/12/30 13:01:17;;;;;;;11.7;9.7;;;;;;;6.7;55.57031;976.1368;;;;
2019/12/30 13:03:42;;;;;;;11.2;9.7;;;;;;;6.89;55.2793;976.0521;;;;
2019/12/30 13:07:58;;;;;;;13.1;9.8;;;;;;;6.87;55.98633;976.0416;;;;
2019/12/30 13:10:23;;;;;;;13.1;10;;;;;;;6.78;56.36914;976.0084;;;;
2019/12/30 13:12:48;;;;;;;11.1;9.5;;;;;;;6.83;56.41113;975.9416;;;;
2019/12/30 13:15:13;;;;;;;12.1;9.3;;;;;;;6.78;56.49707;975.9073;;;;
2019/12/30 13:17:38;;;;;;;10.8;9.4;;;;;;;7.06;55.69727;975.8714;;;;
2019/12/30 13:20:03;;;;;;;12.2;9.7;;;;;;;7.17;55.39844;975.8929;;;;
2019/12/30 13:22:28;;;;;;;11.4;9.3;;;;;;;7.3;55.27539;975.7908;;;;
2019/12/30 13:24:53;;;;;;;10.6;9.5;;;;;;;7.26;55.07129;975.8448;;;;
2019/12/30 13:27:18;;;;;;;10.7;9.6;;;;;;;7.34;55.22168;975.8123;;;;
2019/12/30 13:29:43;;;;;;;11.7;9.3;;;;;;;7.47;55.13477;975.7928;;;;
2019/12/30 13:32:09;;;;;;;10.2;9.1;;;;;;;7.33;54.89453;975.7878;;;;
2019/12/30 13:34:34;;;;;;;12.7;9.6;;;;;;;7.23;55.24316;975.8197;;;;
2019/12/30 13:36:59;;;;;;;11.7;9.5;;;;;;;7.42;55.02246;975.8041;;;;
2019/12/30 13:39:24;;;;;;;12.5;9.7;;;;;;;7.55;54.92383;975.8145;;;;
2019/12/30 13:41:49;;;;;;;11.5;9.6;;;;;;;7.69;54.58008;975.7946;;;;
2019/12/30 13:44:14;;;;;;;11.6;9.5;;;;;;;7.43;54.95313;975.7683;;;;
2019/12/30 13:46:39;;;;;;;11.5;9.7;;;;;;;7.39;55.27539;975.8448;;;;
2019/12/30 13:49:04;;;;;;;11.3;9.1;;;;;;;7.48;55.06445;975.7963;;;;
2019/12/30 13:51:29;;;;;;;11;9.4;;;;;;;7.51;55.13965;975.7466;;;;
2019/12/30 13:53:54;;;;;;;12.3;9.8;;;;;;;7.39;55.4502;975.7378;;;;
2019/12/30 13:56:19;;;;;;;11.8;9.8;;;;;;;7.4;55.5791;975.7033;;;;
2019/12/30 13:58:44;;;;;;;11.4;9.7;;;;;;;7.51;55.41797;975.6806;;;;
2019/12/30 14:01:09;;;;;;;11.4;9.6;;;;;;;7.58;55.47363;975.7098;;;;
2019/12/30 14:03:34;;;;;;;10.8;9.3;;;;;;;7.68;55.00879;975.6983;;;;
2019/12/30 14:06:00;;;;;;;11.4;8.9;;;;;;;7.81;54.83984;975.6527;;;;
2019/12/30 14:08:25;;;;;;;10.8;8.7;;;;;;;7.85;54.81055;975.6563;;;;
2019/12/30 14:10:50;;;;;;;11.2;9.7;;;;;;;7.84;54.83203;975.6498;;;;
2019/12/30 14:13:15;;;;;;;11.3;9.8;;;;;;;7.73;54.85352;975.6691;;;;
2019/12/30 14:15:40;;;;;;;10.4;9.3;;;;;;;7.65;55.41309;975.6872;;;;
2019/12/30 14:18:05;;;;;;;14.1;11;;;;;;;7.7;55.54785;975.6779;;;;